Observation data for Silverton on 11/07/2019      Previous  Date       Current Mesonet Observations  Soil Data  Daily Summary Page  Observations in Plain Language
KSVS 070600Z 01017G22KT 07/05 A3021 RMK A01 T00690047  RH  088%=      5-min Rain = 0
KSVS 070605Z 01019KT 07/05 A3022 RMK A01 T00690047  RH  088%=      5-min Rain = 0
KSVS 070610Z 00019G25KT 06/04 A3022 RMK A01 T00620040  RH  087%=      5-min Rain = 0
KSVS 070615Z 00019G26KT 06/03 A3022 RMK A01 T00570034  RH  087%=      5-min Rain = 0
KSVS 070620Z 00019KT 05/03 A3022 RMK A01 T00540032  RH  088%=      5-min Rain = 0
KSVS 070625Z 35018G25KT 05/03 A3023 RMK A01 T00520031  RH  088%=      5-min Rain = 0
KSVS 070630Z 36021G26KT 05/03 A3023 RMK A01 T00490026  RH  087%=      5-min Rain = 0
KSVS 070635Z 00020G28KT 05/03 A3023 RMK A01 T00450025  RH  088%=      5-min Rain = 0
KSVS 070640Z 00019G25KT 04/03 A3022 RMK A01 T00420025  RH  090%=      5-min Rain = 0
KSVS 070645Z 36019G25KT 04/03 A3023 RMK A01 T00410027  RH  092%=      5-min Rain = 0
KSVS 070650Z 00019G24KT 04/03 A3023 RMK A01 T00400027  RH  093%=      5-min Rain = 0
KSVS 070655Z 00018G25KT 04/03 A3023 RMK A01 T00390026  RH  093%=      5-min Rain = 0
KSVS 070700Z 00021G26KT 04/03 A3023 RMK A01 T00360025  RH  094%=      5-min Rain = 0
KSVS 070705Z 00021G26KT 03/02 A3024 RMK A01 T00320024  RH  096%=      5-min Rain = 0
KSVS 070710Z 01021G27KT 03/02 A3024 RMK A01 T00300023  RH  097%=      5-min Rain = 0
KSVS 070715Z 01020G26KT 03/02 A3023 RMK A01 T00290023  RH  098%=      5-min Rain = 0.01
KSVS 070720Z 01020G25KT 03/02 A3023 RMK A01 T00280024  RH  099%=      5-min Rain = 0
KSVS 070725Z 00024G32KT 03/02 A3023 RMK A01 T00260022  RH  099%=      5-min Rain = 0
KSVS 070730Z 00022G31KT 02/02 A3024 RMK A01 T00230020  RH  099%=      5-min Rain = 0
KSVS 070735Z 00022G29KT 02/02 A3025 RMK A01 T00210018  RH  099%=      5-min Rain = 0
KSVS 070740Z 01023G29KT 02/02 A3025 RMK A01 T00200017  RH  100%=      5-min Rain = 0
KSVS 070745Z 00024G31KT 02/02 A3025 RMK A01 T00180016  RH  100%=      5-min Rain = 0
KSVS 070750Z 00024G29KT 02/02 A3025 RMK A01 T00180016  RH  100%=      5-min Rain = 0
KSVS 070755Z 01024G30KT 02/02 A3025 RMK A01 T00170015  RH  100%=      5-min Rain = 0
KSVS 070800Z 01021G28KT 02/02 A3026 RMK A01 T00170015  RH  100%=      5-min Rain = 0
KSVS 070805Z 36021G29KT 02/01 A3027 RMK A01 T00160014  RH  100%=      5-min Rain = 0
KSVS 070810Z 36023G31KT 02/01 A3027 RMK A01 T00150013  RH  100%=      5-min Rain = 0
KSVS 070815Z 35023G28KT 01/01 A3027 RMK A01 T00140012  RH  100%=      5-min Rain = 0
KSVS 070820Z 35023G32KT 01/01 A3028 RMK A01 T00130011  RH  100%=      5-min Rain = 0
KSVS 070825Z 35023G29KT 01/01 A3028 RMK A01 T00130011  RH  100%=      5-min Rain = 0
KSVS 070830Z 35022G30KT 01/01 A3029 RMK A01 T00130011  RH  100%=      5-min Rain = 0
KSVS 070835Z 35020KT 01/01 A3029 RMK A01 T00140012  RH  100%=      5-min Rain = 0
KSVS 070840Z 35017G25KT 01/01 A303 RMK A01 T00140012  RH  100%=      5-min Rain = 0
KSVS 070845Z 35019G26KT 01/01 A303 RMK A01 T00130011  RH  100%=      5-min Rain = 0
KSVS 070850Z 35019G25KT 01/01 A303 RMK A01 T00120010  RH  100%=      5-min Rain = 0
KSVS 070855Z 35021G26KT 01/01 A3031 RMK A01 T00110009  RH  100%=      5-min Rain = 0
KSVS 070900Z 35020G26KT 01/01 A3031 RMK A01 T00110009  RH  100%=      5-min Rain = 0
KSVS 070905Z 35020G27KT 01/01 A3031 RMK A01 T00090007  RH  100%=      5-min Rain = 0.01
KSVS 070910Z 35020KT 01/01 A303 RMK A01 T00080006  RH  100%=      5-min Rain = 0.01
KSVS 070915Z 35019G27KT 01/01 A303 RMK A01 T00080006  RH  100%=      5-min Rain = 0.01
KSVS 070920Z 35022G28KT 01/01 A303 RMK A01 T00070006  RH  100%=      5-min Rain = 0.01
KSVS 070925Z 36020G27KT 01/01 A303 RMK A01 T00070005  RH  100%=      5-min Rain = 0.01
KSVS 070930Z 00023G30KT 01/00 A303 RMK A01 T00060004  RH  100%=      5-min Rain = 0.01
KSVS 070935Z 36023G32KT 01/00 A303 RMK A01 T00050003  RH  100%=      5-min Rain = 0.01
KSVS 070940Z 01023G28KT 00/00 A3031 RMK A01 T00040002  RH  100%=      5-min Rain = 0
KSVS 070945Z 36022G29KT 00/00 A3031 RMK A01 T00030002  RH  100%=      5-min Rain = 0
KSVS 070950Z 01023G29KT 00/00 A303 RMK A01 T00020000  RH  100%=      5-min Rain = 0
KSVS 070955Z 00019G29KT 00/00 A3031 RMK A01 T00020000  RH  100%=      5-min Rain = 0
KSVS 071000Z 36021G28KT 00/00 A3031 RMK A01 T00020000  RH  100%=      5-min Rain = 0
KSVS 071005Z 00021G26KT 00/00 A3031 RMK A01 T000100-0  RH  100%=      5-min Rain = 0
KSVS 071010Z 36020G27KT 00/M00 A3031 RMK A01 T00011001  RH  100%=      5-min Rain = 0
KSVS 071015Z 00022G31KT M00/M00 A3031 RMK A01 T10011003  RH  100%=      5-min Rain = 0
KSVS 071020Z 00023G29KT M00/M01 A3031 RMK A01 T10031005  RH  100%=      5-min Rain = 0
KSVS 071025Z 00023G31KT M00/M01 A3031 RMK A01 T10041005  RH  100%=      5-min Rain = 0
KSVS 071030Z 00021G26KT M00/M01 A3032 RMK A01 T10041005  RH  100%=      5-min Rain = 0
KSVS 071035Z 00021G27KT M00/M01 A3032 RMK A01 T10041005  RH  100%=      5-min Rain = 0.01
KSVS 071040Z 01022G29KT M01/M01 A3032 RMK A01 T10051006  RH  100%=      5-min Rain = 0
KSVS 071045Z 01021G29KT M01/M01 A3031 RMK A01 T10051007  RH  100%=      5-min Rain = 0
KSVS 071050Z 01020G26KT M01/M01 A3031 RMK A01 T10051007  RH  100%=      5-min Rain = 0
KSVS 071055Z 01020G28KT M01/M01 A3031 RMK A01 T10061007  RH  100%=      5-min Rain = 0
KSVS 071100Z 01019G27KT M01/M01 A3032 RMK A01 T10061008  RH  100%=      5-min Rain = 0
KSVS 071105Z 01020G27KT M01/M01 A3033 RMK A01 T10071008  RH  100%=      5-min Rain = 0
KSVS 071110Z 01018G24KT M01/M01 A3032 RMK A01 T10071008  RH  100%=      5-min Rain = 0
KSVS 071115Z 01018G25KT M01/M01 A3033 RMK A01 T10071008  RH  100%=      5-min Rain = 0
KSVS 071120Z 00018G24KT M01/M01 A3034 RMK A01 T10071008  RH  100%=      5-min Rain = 0
KSVS 071125Z 36017G22KT M01/M01 A3034 RMK A01 T10061008  RH  100%=      5-min Rain = 0
KSVS 071130Z 36018G23KT M01/M01 A3034 RMK A01 T10061007  RH  100%=      5-min Rain = 0
KSVS 071135Z 00018G23KT M01/M01 A3034 RMK A01 T10061008  RH  100%=      5-min Rain = 0
KSVS 071140Z 01017G24KT M01/M01 A3034 RMK A01 T10071008  RH  100%=      5-min Rain = 0
KSVS 071145Z 00016G21KT M01/M01 A3034 RMK A01 T10071008  RH  100%=      5-min Rain = 0
KSVS 071150Z 00017G23KT M01/M01 A3034 RMK A01 T10071008  RH  100%=      5-min Rain = 0
KSVS 071155Z 01018KT M01/M01 A3034 RMK A01 T10071009  RH  100%=      5-min Rain = 0
KSVS 071200Z 01016G21KT M01/M01 A3035 RMK A01 T10071008  RH  100%=      5-min Rain = 0
KSVS 071205Z 00015G20KT M01/M01 A3036 RMK A01 T10071008  RH  100%=      5-min Rain = 0
KSVS 071210Z 01017G22KT M01/M01 A3036 RMK A01 T10081009  RH  100%=      5-min Rain = 0
KSVS 071215Z 01015KT M01/M01 A3037 RMK A01 T10091010  RH  100%=      5-min Rain = 0
KSVS 071220Z 00012G17KT M01/M01 A3038 RMK A01 T10091010  RH  100%=      5-min Rain = 0
KSVS 071225Z 01014KT M01/M01 A3038 RMK A01 T10101011  RH  100%=      5-min Rain = 0
KSVS 071230Z 01013KT M01/M01 A3038 RMK A01 T10101012  RH  100%=      5-min Rain = 0
KSVS 071235Z 01012KT M01/M01 A3038 RMK A01 T10101011  RH  100%=      5-min Rain = 0
KSVS 071240Z 01011KT M01/M01 A3039 RMK A01 T10101011  RH  100%=      5-min Rain = 0
KSVS 071245Z 00013KT M01/M01 A3039 RMK A01 T10101011  RH  100%=      5-min Rain = 0
KSVS 071250Z 00014KT M01/M01 A3039 RMK A01 T10111013  RH  100%=      5-min Rain = 0
KSVS 071255Z 00013KT M01/M01 A3039 RMK A01 T10121013  RH  100%=      5-min Rain = 0
KSVS 071300Z 01011KT M01/M01 A304 RMK A01 T10121013  RH  100%=      5-min Rain = 0
KSVS 071305Z 01012KT M01/M01 A3039 RMK A01 T10121013  RH  100%=      5-min Rain = 0
KSVS 071310Z 01012KT M01/M01 A3039 RMK A01 T10121013  RH  100%=      5-min Rain = 0
KSVS 071315Z 01010KT M01/M01 A3039 RMK A01 T10111012  RH  100%=      5-min Rain = 0
KSVS 071320Z 00012KT M01/M01 A3038 RMK A01 T10111012  RH  100%=      5-min Rain = 0
KSVS 071325Z 00013G18KT M01/M01 A3038 RMK A01 T10121013  RH  100%=      5-min Rain = 0
KSVS 071330Z 00012KT M01/M01 A3039 RMK A01 T10131014  RH  100%=      5-min Rain = 0
KSVS 071335Z 36013KT M02/M02 A3039 RMK A01 T10151016  RH  100%=      5-min Rain = 0
KSVS 071340Z 00014KT M02/M02 A3039 RMK A01 T10151016  RH  100%=      5-min Rain = 0
KSVS 071345Z 00013KT M02/M02 A304 RMK A01 T10151016  RH  100%=      5-min Rain = 0
KSVS 071350Z 01012KT M02/M02 A304 RMK A01 T10151016  RH  100%=      5-min Rain = 0
KSVS 071355Z 01012KT M02/M02 A3041 RMK A01 T10151016  RH  100%=      5-min Rain = 0
KSVS 071400Z 01011KT M02/M02 A3042 RMK A01 T10151016  RH  100%=      5-min Rain = 0
KSVS 071405Z 01010KT M02/M02 A3042 RMK A01 T10151016  RH  100%=      5-min Rain = 0
KSVS 071410Z 02010KT M02/M02 A3042 RMK A01 T10151016  RH  100%=      5-min Rain = 0
KSVS 071415Z 01009KT M01/M02 A3042 RMK A01 T10141015  RH  100%=      5-min Rain = 0
KSVS 071420Z 01009KT M01/M02 A3043 RMK A01 T10131015  RH  100%=      5-min Rain = 0
KSVS 071425Z 01009KT M01/M01 A3043 RMK A01 T10131014  RH  100%=      5-min Rain = 0
KSVS 071430Z 01010KT M01/M01 A3043 RMK A01 T10131014  RH  100%=      5-min Rain = 0
KSVS 071435Z 01009KT M01/M01 A3043 RMK A01 T10131014  RH  100%=      5-min Rain = 0
KSVS 071440Z 01010KT M01/M01 A3044 RMK A01 T10131014  RH  100%=      5-min Rain = 0
KSVS 071445Z 00009KT M01/M01 A3044 RMK A01 T10121013  RH  100%=      5-min Rain = 0
KSVS 071450Z 00008KT M01/M01 A3045 RMK A01 T10121013  RH  100%=      5-min Rain = 0
KSVS 071455Z 36009KT M01/M01 A3045 RMK A01 T10131014  RH  100%=      5-min Rain = 0
KSVS 071500Z 01011KT M02/M02 A3045 RMK A01 T10151016  RH  100%=      5-min Rain = 0
KSVS 071505Z 01011KT M02/M02 A3045 RMK A01 T10151016  RH  100%=      5-min Rain = 0
KSVS 071510Z 02011KT M02/M02 A3045 RMK A01 T10151016  RH  100%=      5-min Rain = 0
KSVS 071515Z 01008KT M01/M02 A3045 RMK A01 T10131015  RH  100%=      5-min Rain = 0
KSVS 071520Z 01009KT M01/M02 A3046 RMK A01 T10141015  RH  100%=      5-min Rain = 0
KSVS 071525Z 01008KT M01/M02 A3046 RMK A01 T10131015  RH  100%=      5-min Rain = 0
KSVS 071530Z 01008KT M01/M01 A3046 RMK A01 T10131014  RH  100%=      5-min Rain = 0
KSVS 071535Z 00008KT M01/M01 A3046 RMK A01 T10131014  RH  100%=      5-min Rain = 0
KSVS 071540Z 36007KT M01/M01 A3047 RMK A01 T10121013  RH  100%=      5-min Rain = 0
KSVS 071545Z 00007KT M01/M01 A3047 RMK A01 T10121013  RH  100%=      5-min Rain = 0
KSVS 071550Z 00008KT M01/M01 A3046 RMK A01 T10121013  RH  100%=      5-min Rain = 0
KSVS 071555Z 01010KT M01/M02 A3046 RMK A01 T10131015  RH  100%=      5-min Rain = 0
KSVS 071600Z 01010KT M01/M02 A3046 RMK A01 T10141015  RH  100%=      5-min Rain = 0
KSVS 071605Z 01008KT M01/M01 A3046 RMK A01 T10121014  RH  100%=      5-min Rain = 0
KSVS 071610Z 01008KT M01/M01 A3046 RMK A01 T10121013  RH  100%=      5-min Rain = 0
KSVS 071615Z 01007KT M01/M01 A3046 RMK A01 T10111012  RH  100%=      5-min Rain = 0
KSVS 071620Z 02008KT M01/M01 A3046 RMK A01 T10111012  RH  100%=      5-min Rain = 0
KSVS 071625Z 01007KT M01/M01 A3046 RMK A01 T10111013  RH  100%=      5-min Rain = 0
KSVS 071630Z 01007KT M01/M01 A3046 RMK A01 T10111012  RH  100%=      5-min Rain = 0
KSVS 071635Z 01007KT M01/M01 A3046 RMK A01 T10111012  RH  100%=      5-min Rain = 0
KSVS 071640Z 00007KT M01/M01 A3047 RMK A01 T10121013  RH  100%=      5-min Rain = 0
KSVS 071645Z 01006KT M01/M01 A3047 RMK A01 T10111013  RH  100%=      5-min Rain = 0
KSVS 071650Z 01006KT M01/M01 A3047 RMK A01 T10111012  RH  100%=      5-min Rain = 0
KSVS 071655Z 36006KT M01/M01 A3047 RMK A01 T10131014  RH  100%=      5-min Rain = 0
KSVS 071700Z 00006KT M01/M02 A3047 RMK A01 T10141015  RH  100%=      5-min Rain = 0
KSVS 071705Z 01006KT M02/M02 A3047 RMK A01 T10151016  RH  100%=      5-min Rain = 0
KSVS 071710Z 01005KT M01/M02 A3049 RMK A01 T10141015  RH  100%=      5-min Rain = 0
KSVS 071715Z 01005KT M02/M02 A3049 RMK A01 T10151016  RH  100%=      5-min Rain = 0
KSVS 071720Z 01005KT M01/M01 A3049 RMK A01 T10131014  RH  100%=      5-min Rain = 0
KSVS 071725Z 01005KT M01/M02 A3049 RMK A01 T10141015  RH  100%=      5-min Rain = 0
KSVS 071730Z 01005KT M01/M02 A3049 RMK A01 T10141015  RH  100%=      5-min Rain = 0
KSVS 071735Z 01005KT M02/M02 A3049 RMK A01 T10151016  RH  100%=      5-min Rain = 0
KSVS 071740Z 01005KT M02/M02 A3049 RMK A01 T10151016  RH  100%=      5-min Rain = 0
KSVS 071745Z 01004KT M01/M02 A305 RMK A01 T10141015  RH  100%=      5-min Rain = 0
KSVS 071750Z 01004KT M01/M01 A3049 RMK A01 T10131014  RH  100%=      5-min Rain = 0
KSVS 071755Z 01004KT M01/M01 A3048 RMK A01 T10121013  RH  100%=      5-min Rain = 0
KSVS 071800Z 00005KT M01/M01 A3048 RMK A01 T10131014  RH  100%=      5-min Rain = 0
KSVS 071805Z 01004KT M01/M02 A3048 RMK A01 T10141015  RH  100%=      5-min Rain = 0
KSVS 071810Z 01004KT M01/M02 A3047 RMK A01 T10131015  RH  100%=      5-min Rain = 0
KSVS 071815Z 01004KT M01/M01 A3046 RMK A01 T10121014  RH  100%=      5-min Rain = 0
KSVS 071820Z 01004KT M01/M01 A3046 RMK A01 T10121014  RH  100%=      5-min Rain = 0
KSVS 071825Z 01004KT M01/M01 A3045 RMK A01 T10121014  RH  100%=      5-min Rain = 0
KSVS 071830Z 01004KT M01/M01 A3045 RMK A01 T10121013  RH  100%=      5-min Rain = 0
KSVS 071835Z 01004KT M01/M01 A3046 RMK A01 T10131014  RH  100%=      5-min Rain = 0
KSVS 071840Z 01003KT M01/M01 A3046 RMK A01 T10131014  RH  100%=      5-min Rain = 0
KSVS 071845Z 01003KT M01/M01 A3046 RMK A01 T10131014  RH  100%=      5-min Rain = 0
KSVS 071850Z 01003KT M01/M01 A3046 RMK A01 T10121013  RH  100%=      5-min Rain = 0
KSVS 071855Z 01003KT M01/M01 A3046 RMK A01 T10121013  RH  100%=      5-min Rain = 0
KSVS 071900Z 35003KT M01/M01 A3046 RMK A01 T10121013  RH  100%=      5-min Rain = 0
KSVS 071905Z 35003KT M01/M02 A3046 RMK A01 T10131015  RH  100%=      5-min Rain = 0
KSVS 071910Z 36003KT M02/M02 A3046 RMK A01 T10151016  RH  100%=      5-min Rain = 0
KSVS 071915Z 00003KT M01/M02 A3046 RMK A01 T10141015  RH  100%=      5-min Rain = 0
KSVS 071920Z 00003KT M01/M01 A3045 RMK A01 T10131014  RH  100%=      5-min Rain = 0
KSVS 071925Z 00004KT M01/M01 A3045 RMK A01 T10131014  RH  100%=      5-min Rain = 0
KSVS 071930Z 36003KT M01/M01 A3045 RMK A01 T10121013  RH  100%=      5-min Rain = 0
KSVS 071935Z 36003KT M01/M01 A3046 RMK A01 T10111012  RH  100%=      5-min Rain = 0
KSVS 071940Z 00003KT M01/M01 A3045 RMK A01 T10111012  RH  100%=      5-min Rain = 0
KSVS 071945Z 00003KT M01/M01 A3045 RMK A01 T10091011  RH  100%=      5-min Rain = 0
KSVS 071950Z 36003KT M01/M01 A3044 RMK A01 T10091011  RH  100%=      5-min Rain = 0
KSVS 071955Z 00003KT M01/M01 A3044 RMK A01 T10101011  RH  100%=      5-min Rain = 0
KSVS 072000Z 00003KT M01/M01 A3044 RMK A01 T10111012  RH  100%=      5-min Rain = 0
KSVS 072005Z 00003KT M01/M01 A3043 RMK A01 T10111012  RH  100%=      5-min Rain = 0
KSVS 072010Z 36003KT M01/M01 A3043 RMK A01 T10101011  RH  100%=      5-min Rain = 0
KSVS 072015Z 36003KT M01/M01 A3043 RMK A01 T10081010  RH  100%=      5-min Rain = 0
KSVS 072020Z 00003KT M01/M01 A3043 RMK A01 T10081009  RH  100%=      5-min Rain = 0
KSVS 072025Z 00003KT M01/M01 A3043 RMK A01 T10091011  RH  100%=      5-min Rain = 0
KSVS 072030Z 01003KT M01/M01 A3043 RMK A01 T10091010  RH  100%=      5-min Rain = 0
KSVS 072035Z 00003KT M01/M01 A3043 RMK A01 T10091010  RH  100%=      5-min Rain = 0
KSVS 072040Z 01003KT M01/M01 A3043 RMK A01 T10081009  RH  100%=      5-min Rain = 0
KSVS 072045Z 00003KT M01/M01 A3043 RMK A01 T10091010  RH  100%=      5-min Rain = 0
KSVS 072050Z 01003KT M01/M01 A3043 RMK A01 T10091011  RH  100%=      5-min Rain = 0
KSVS 072055Z 00002KT M01/M01 A3043 RMK A01 T10081009  RH  100%=      5-min Rain = 0
KSVS 072100Z 00003KT M01/M01 A3043 RMK A01 T10081009  RH  100%=      5-min Rain = 0
KSVS 072105Z 01003KT M01/M01 A3043 RMK A01 T10081009  RH  100%=      5-min Rain = 0
KSVS 072110Z 00002KT M01/M01 A3043 RMK A01 T10071008  RH  100%=      5-min Rain = 0
KSVS 072115Z 36002KT M01/M01 A3043 RMK A01 T10071009  RH  100%=      5-min Rain = 0
KSVS 072120Z 35002KT M01/M01 A3044 RMK A01 T10081009  RH  100%=      5-min Rain = 0
KSVS 072125Z 36003KT M01/M01 A3044 RMK A01 T10081010  RH  100%=      5-min Rain = 0
KSVS 072130Z 36002KT M01/M01 A3043 RMK A01 T10081010  RH  100%=      5-min Rain = 0
KSVS 072135Z 36002KT M01/M01 A3043 RMK A01 T10091010  RH  100%=      5-min Rain = 0
KSVS 072140Z 36002KT M01/M01 A3043 RMK A01 T10081009  RH  100%=      5-min Rain = 0
KSVS 072145Z 00002KT M01/M01 A3043 RMK A01 T10081009  RH  100%=      5-min Rain = 0
KSVS 072150Z 36003KT M01/M01 A3042 RMK A01 T10071008  RH  100%=      5-min Rain = 0
KSVS 072155Z 36003KT M01/M01 A3042 RMK A01 T10081009  RH  100%=      5-min Rain = 0
KSVS 072200Z 00003KT M01/M01 A3043 RMK A01 T10081009  RH  100%=      5-min Rain = 0
KSVS 072205Z 00002KT M01/M01 A3043 RMK A01 T10061008  RH  100%=      5-min Rain = 0
KSVS 072210Z 36002KT M01/M01 A3043 RMK A01 T10061007  RH  100%=      5-min Rain = 0
KSVS 072215Z 36002KT M01/M01 A3043 RMK A01 T10071008  RH  100%=      5-min Rain = 0
KSVS 072220Z 00002KT M01/M01 A3044 RMK A01 T10051007  RH  100%=      5-min Rain = 0
KSVS 072225Z 36002KT M01/M01 A3044 RMK A01 T10051007  RH  100%=      5-min Rain = 0
KSVS 072230Z 35002KT M01/M01 A3044 RMK A01 T10051007  RH  100%=      5-min Rain = 0
KSVS 072235Z 35002KT M01/M01 A3044 RMK A01 T10061008  RH  099%=      5-min Rain = 0
KSVS 072240Z 36002KT M01/M01 A3044 RMK A01 T10051008  RH  099%=      5-min Rain = 0
KSVS 072245Z 35002KT M01/M01 A3044 RMK A01 T10051008  RH  099%=      5-min Rain = 0
KSVS 072250Z 36002KT M00/M01 A3044 RMK A01 T10041007  RH  099%=      5-min Rain = 0
KSVS 072255Z 35002KT M00/M01 A3044 RMK A01 T10031007  RH  099%=      5-min Rain = 0
KSVS 072300Z 00002KT M00/M01 A3044 RMK A01 T10031006  RH  099%=      5-min Rain = 0
KSVS 072305Z 00002KT M00/M01 A3044 RMK A01 T10031006  RH  099%=      5-min Rain = 0
KSVS 072310Z 36002KT M00/M01 A3044 RMK A01 T10021006  RH  099%=      5-min Rain = 0
KSVS 072315Z 00002KT M00/M01 A3044 RMK A01 T10021006  RH  099%=      5-min Rain = 0
KSVS 072320Z 36002KT M00/M01 A3044 RMK A01 T10021006  RH  099%=      5-min Rain = 0
KSVS 072325Z 36002KT M00/M01 A3045 RMK A01 T10021005  RH  099%=      5-min Rain = 0
KSVS 072330Z 36002KT M00/M01 A3045 RMK A01 T10021005  RH  099%=      5-min Rain = 0
KSVS 072335Z 00002KT M00/M01 A3044 RMK A01 T10021005  RH  099%=      5-min Rain = 0
KSVS 072340Z 00002KT M00/M01 A3045 RMK A01 T10021005  RH  099%=      5-min Rain = 0
KSVS 072345Z 36002KT M00/M01 A3045 RMK A01 T10021005  RH  099%=      5-min Rain = 0
KSVS 072350Z 36002KT M00/M01 A3045 RMK A01 T10021005  RH  099%=      5-min Rain = 0
KSVS 072355Z 00002KT M00/M01 A3045 RMK A01 T10031006  RH  099%=      5-min Rain = 0
KSVS 080000Z 01002KT M00/M01 A3045 RMK A01 T10031005  RH  099%=      5-min Rain = 0
KSVS 080005Z 01002KT M00/M01 A3045 RMK A01 T10021005  RH  099%=      5-min Rain = 0
KSVS 080010Z 01002KT M00/M01 A3045 RMK A01 T10031007  RH  098%=      5-min Rain = 0
KSVS 080015Z 00002KT M00/M01 A3045 RMK A01 T10031007  RH  098%=      5-min Rain = 0
KSVS 080020Z 36002KT M00/M01 A3046 RMK A01 T10021007  RH  097%=      5-min Rain = 0
KSVS 080025Z 36002KT M00/M01 A3046 RMK A01 T10021008  RH  097%=      5-min Rain = 0
KSVS 080030Z 01002KT M00/M01 A3045 RMK A01 T10011006  RH  097%=      5-min Rain = 0
KSVS 080035Z 00002KT M00/M01 A3045 RMK A01 T10011006  RH  097%=      5-min Rain = 0
KSVS 080040Z 01002KT M00/M01 A3045 RMK A01 T10011006  RH  097%=      5-min Rain = 0
KSVS 080045Z 00002KT 00/01 A3045 RMK A01 T00-000-6  RH  097%=      5-min Rain = 0
KSVS 080050Z 00002KT M00/M01 A3045 RMK A01 T10011006  RH  097%=      5-min Rain = 0
KSVS 080055Z 00002KT M00/M01 A3045 RMK A01 T10011006  RH  097%=      5-min Rain = 0
KSVS 080100Z 01002KT 00/01 A3046 RMK A01 T00-000-6  RH  097%=      5-min Rain = 0
KSVS 080105Z 00002KT 00/01 A3046 RMK A01 T000000-6  RH  097%=      5-min Rain = 0
KSVS 080110Z 00002KT 00/01 A3046 RMK A01 T00-000-5  RH  097%=      5-min Rain = 0
KSVS 080115Z 00002KT 00/01 A3046 RMK A01 T00-000-5  RH  097%=      5-min Rain = 0
KSVS 080120Z 36002KT 00/01 A3046 RMK A01 T000000-5  RH  097%=      5-min Rain = 0
KSVS 080125Z 36002KT 00/M00 A3046 RMK A01 T00011004  RH  098%=      5-min Rain = 0
KSVS 080130Z 36002KT 00/M00 A3046 RMK A01 T00011004  RH  098%=      5-min Rain = 0
KSVS 080135Z 01002KT 00/M00 A3046 RMK A01 T00011003  RH  098%=      5-min Rain = 0
KSVS 080140Z 00002KT 00/M00 A3046 RMK A01 T00011004  RH  098%=      5-min Rain = 0
KSVS 080145Z 00002KT 00/M00 A3046 RMK A01 T00011004  RH  098%=      5-min Rain = 0
KSVS 080150Z 00002KT 00/M00 A3046 RMK A01 T00011004  RH  098%=      5-min Rain = 0
KSVS 080155Z 01001KT 00/M00 A3046 RMK A01 T00011004  RH  098%=      5-min Rain = 0
KSVS 080200Z 02001KT 00/M00 A3046 RMK A01 T00021003  RH  098%=      5-min Rain = 0
KSVS 080205Z 02001KT 00/M00 A3046 RMK A01 T00011003  RH  098%=      5-min Rain = 0
KSVS 080210Z 01001KT 00/M00 A3046 RMK A01 T00011003  RH  098%=      5-min Rain = 0
KSVS 080215Z 00001KT 00/M00 A3046 RMK A01 T00011003  RH  098%=      5-min Rain = 0
KSVS 080220Z 01001KT 00/M00 A3046 RMK A01 T00021003  RH  097%=      5-min Rain = 0
KSVS 080225Z 01001KT 00/M00 A3046 RMK A01 T00021003  RH  097%=      5-min Rain = 0
KSVS 080230Z 02001KT 00/M00 A3046 RMK A01 T00021004  RH  097%=      5-min Rain = 0
KSVS 080235Z 02001KT 00/M00 A3046 RMK A01 T00021004  RH  097%=      5-min Rain = 0
KSVS 080240Z 02001KT 00/M01 A3046 RMK A01 T00021005  RH  096%=      5-min Rain = 0
KSVS 080245Z 02001KT 00/M01 A3046 RMK A01 T00021005  RH  096%=      5-min Rain = 0
KSVS 080250Z 01002KT 00/M01 A3047 RMK A01 T00021005  RH  096%=      5-min Rain = 0
KSVS 080255Z 01001KT 00/M01 A3047 RMK A01 T00021006  RH  096%=      5-min Rain = 0
KSVS 080300Z 01001KT 00/M01 A3047 RMK A01 T00021005  RH  096%=      5-min Rain = 0
KSVS 080305Z 00001KT 00/M01 A3047 RMK A01 T00021005  RH  096%=      5-min Rain = 0
KSVS 080310Z 00001KT 00/M01 A3047 RMK A01 T00021005  RH  096%=      5-min Rain = 0
KSVS 080315Z 36001KT 00/M00 A3047 RMK A01 T00021004  RH  096%=      5-min Rain = 0
KSVS 080320Z 00001KT 00/M01 A3047 RMK A01 T00021005  RH  096%=      5-min Rain = 0
KSVS 080325Z 00001KT 00/M01 A3047 RMK A01 T00031005  RH  096%=      5-min Rain = 0
KSVS 080330Z 01001KT 00/M01 A3047 RMK A01 T00031005  RH  096%=      5-min Rain = 0
KSVS 080335Z 01001KT 00/M01 A3047 RMK A01 T00031005  RH  096%=      5-min Rain = 0
KSVS 080340Z 01001KT 00/M01 A3047 RMK A01 T00031006  RH  095%=      5-min Rain = 0
KSVS 080345Z 01001KT 00/M01 A3047 RMK A01 T00031006  RH  095%=      5-min Rain = 0
KSVS 080350Z 02001KT 00/M01 A3047 RMK A01 T00031006  RH  094%=      5-min Rain = 0
KSVS 080355Z 02001KT 00/M01 A3047 RMK A01 T00031007  RH  094%=      5-min Rain = 0
KSVS 080400Z 02002KT 00/M01 A3047 RMK A01 T00031008  RH  093%=      5-min Rain = 0
KSVS 080405Z 02002KT 00/M01 A3046 RMK A01 T00031008  RH  093%=      5-min Rain = 0
KSVS 080410Z 02002KT 00/M01 A3047 RMK A01 T00031008  RH  093%=      5-min Rain = 0
KSVS 080415Z 02001KT 00/M01 A3047 RMK A01 T00031008  RH  093%=      5-min Rain = 0
KSVS 080420Z 00001KT 00/M01 A3047 RMK A01 T00031007  RH  093%=      5-min Rain = 0
KSVS 080425Z 34001KT 00/M01 A3048 RMK A01 T00031008  RH  093%=      5-min Rain = 0
KSVS 080430Z 34001KT 00/M01 A3048 RMK A01 T00041008  RH  093%=      5-min Rain = 0
KSVS 080435Z 34001KT 00/M01 A3048 RMK A01 T00041007  RH  093%=      5-min Rain = 0
KSVS 080440Z 36001KT 00/M01 A3048 RMK A01 T00041007  RH  093%=      5-min Rain = 0
KSVS 080445Z 35001KT 00/M01 A3048 RMK A01 T00041008  RH  093%=      5-min Rain = 0
KSVS 080450Z 35001KT 00/M01 A3048 RMK A01 T00041009  RH  092%=      5-min Rain = 0
KSVS 080455Z 34001KT 01/M01 A3048 RMK A01 T00051009  RH  092%=      5-min Rain = 0
KSVS 080500Z 35001KT 01/M01 A3047 RMK A01 T00051008  RH  092%=      5-min Rain = 0
KSVS 080505Z 35001KT 01/M01 A3047 RMK A01 T00051007  RH  093%=      5-min Rain = 0
KSVS 080510Z 35001KT 01/M01 A3047 RMK A01 T00051008  RH  092%=      5-min Rain = 0
KSVS 080515Z 36001KT 01/M01 A3047 RMK A01 T00051007  RH  092%=      5-min Rain = 0
KSVS 080520Z 35001KT 01/M01 A3047 RMK A01 T00051007  RH  093%=      5-min Rain = 0
KSVS 080525Z 36001KT 01/M01 A3047 RMK A01 T00051007  RH  093%=      5-min Rain = 0
KSVS 080530Z 01001KT 01/M01 A3047 RMK A01 T00051006  RH  093%=      5-min Rain = 0
KSVS 080535Z 01001KT 01/M01 A3046 RMK A01 T00061005  RH  094%=      5-min Rain = 0
KSVS 080540Z 00001KT 01/M00 A3046 RMK A01 T00051004  RH  094%=      5-min Rain = 0
KSVS 080545Z 00001KT 01/M00 A3046 RMK A01 T00051004  RH  094%=      5-min Rain = 0
KSVS 080550Z 00001KT 01/M00 A3046 RMK A01 T00051004  RH  095%=      5-min Rain = 0
KSVS 080555Z 35001KT 01/M00 A3046 RMK A01 T00061003  RH  095%=      5-min Rain = 0

Page generated in 0.0171 seconds.